createdAt,value
2023-05-24T00:00:20.897Z,127.94
2023-05-24T00:01:21.010Z,128.42
2023-05-24T00:02:19.984Z,127.80
2023-05-24T00:03:21.096Z,129.83
2023-05-24T00:04:21.174Z,128.12
2023-05-24T00:05:21.138Z,130.09
2023-05-24T00:06:21.176Z,127.90
2023-05-24T00:07:20.325Z,127.02
2023-05-24T00:08:21.274Z,129.31
2023-05-24T00:09:21.324Z,129.11
2023-05-24T00:10:21.394Z,128.74
2023-05-24T00:11:20.441Z,127.35
2023-05-24T00:12:21.604Z,126.81
2023-05-24T00:13:21.496Z,129.54
2023-05-24T00:14:21.589Z,128.71
2023-05-24T00:15:20.619Z,127.94
2023-05-24T00:16:21.667Z,125.01
2023-05-24T00:17:20.751Z,127.24
2023-05-24T00:18:20.755Z,127.79
2023-05-24T00:19:20.967Z,128.76
2023-05-24T00:20:21.095Z,128.66
2023-05-24T00:21:20.877Z,128.63
2023-05-24T00:22:21.937Z,127.23
2023-05-24T00:23:21.985Z,128.80
2023-05-24T00:24:21.031Z,129.34
2023-05-24T00:25:22.101Z,128.21
2023-05-24T00:26:22.109Z,128.44
2023-05-24T00:27:22.188Z,129.13
2023-05-24T00:28:21.342Z,127.46
2023-05-24T00:29:22.287Z,127.66
2023-05-24T00:30:21.344Z,128.96
2023-05-24T00:31:21.434Z,127.03
2023-05-24T00:32:22.491Z,127.37
2023-05-24T00:33:22.475Z,126.50
2023-05-24T00:34:22.520Z,127.77
2023-05-24T00:35:22.598Z,125.37
2023-05-24T00:36:22.640Z,126.80
2023-05-24T00:37:22.723Z,126.76
2023-05-24T00:38:21.773Z,125.98
2023-05-24T00:39:22.809Z,127.47
2023-05-24T00:40:21.859Z,126.47
2023-05-24T00:41:21.908Z,125.17
2023-05-24T00:42:22.983Z,126.20
2023-05-24T00:43:23.029Z,128.37
2023-05-24T00:44:23.102Z,126.66
2023-05-24T00:45:23.174Z,125.35
2023-05-24T00:46:23.239Z,125.97
2023-05-24T00:47:22.306Z,124.47
2023-05-24T00:48:23.299Z,126.77
2023-05-24T00:49:23.384Z,125.80
2023-05-24T00:50:23.411Z,124.83
2023-05-24T00:51:22.490Z,124.78
2023-05-24T00:52:23.546Z,127.59
2023-05-24T00:53:23.597Z,125.72
2023-05-24T00:54:22.654Z,124.16
2023-05-24T00:55:22.746Z,125.47
2023-05-24T00:56:23.759Z,127.86
2023-05-24T00:57:23.869Z,123.31
2023-05-24T00:58:23.883Z,125.94
2023-05-24T00:59:23.978Z,125.39
2023-05-24T01:00:23.038Z,125.75
2023-05-24T01:01:23.100Z,124.55
2023-05-24T01:02:23.198Z,125.02
2023-05-24T01:03:24.347Z,123.63
2023-05-24T01:04:24.443Z,125.06
2023-05-24T01:05:23.289Z,124.10
2023-05-24T01:06:24.351Z,126.83
2023-05-24T01:07:24.442Z,126.63
2023-05-24T01:08:24.451Z,124.70
2023-05-24T01:09:24.547Z,124.85
2023-05-24T01:10:23.574Z,125.54
2023-05-24T01:11:24.637Z,124.22
2023-05-24T01:12:24.689Z,123.75
2023-05-24T01:13:24.766Z,125.89
2023-05-24T01:14:24.824Z,124.15
2023-05-24T01:15:24.880Z,124.37
2023-05-24T01:16:23.970Z,125.78
2023-05-24T01:17:25.054Z,125.40
2023-05-24T01:18:25.054Z,123.07
2023-05-24T01:19:25.102Z,124.52
2023-05-24T01:20:24.183Z,122.38
2023-05-24T01:21:24.225Z,125.44
2023-05-24T01:22:25.273Z,123.16
2023-05-24T01:23:25.346Z,125.46
2023-05-24T01:24:24.394Z,124.16
2023-05-24T01:25:25.507Z,124.11
2023-05-24T01:26:25.517Z,124.90
2023-05-24T01:27:25.629Z,124.46
2023-05-24T01:28:25.647Z,123.50
2023-05-24T01:29:25.708Z,123.01
2023-05-24T01:30:25.756Z,124.25
2023-05-24T01:31:25.877Z,124.86
2023-05-24T01:32:24.903Z,126.00
2023-05-24T01:33:25.958Z,125.38
2023-05-24T01:34:25.109Z,121.20
2023-05-24T01:35:25.033Z,123.83
2023-05-24T01:36:25.124Z,122.68
2023-05-24T01:37:26.222Z,122.55
2023-05-24T01:38:25.261Z,122.97
2023-05-24T01:39:25.269Z,121.08
2023-05-24T01:40:26.360Z,123.87
2023-05-24T01:41:26.405Z,122.25
2023-05-24T01:42:25.465Z,123.09
2023-05-24T01:43:26.535Z,120.84
2023-05-24T01:44:25.604Z,121.81
2023-05-24T01:45:26.648Z,120.63
2023-05-24T01:46:26.708Z,121.76
2023-05-24T01:47:25.774Z,120.57
2023-05-24T01:48:26.866Z,120.85
2023-05-24T01:49:26.890Z,122.99
2023-05-24T01:50:26.955Z,121.71
2023-05-24T01:51:26.994Z,121.38
2023-05-24T01:52:26.104Z,120.35
2023-05-24T01:53:27.119Z,122.07
2023-05-24T01:54:27.182Z,123.66
2023-05-24T01:55:26.232Z,120.66
2023-05-24T01:56:27.304Z,120.81
2023-05-24T01:57:26.355Z,120.99
2023-05-24T01:58:27.432Z,120.56
2023-05-24T01:59:26.478Z,121.64
2023-05-24T02:00:26.538Z,119.76
2023-05-24T02:01:27.630Z,123.75
2023-05-24T02:02:27.719Z,120.24
2023-05-24T02:03:26.729Z,121.31
2023-05-24T02:04:26.803Z,118.73
2023-05-24T02:05:27.827Z,122.04
2023-05-24T02:06:27.906Z,119.79
2023-05-24T02:07:27.926Z,120.49
2023-05-24T02:08:27.998Z,120.86
2023-05-24T02:09:28.044Z,120.85
2023-05-24T02:10:28.126Z,121.90
2023-05-24T02:11:28.158Z,120.13
2023-05-24T02:12:27.230Z,120.33
2023-05-24T02:13:27.273Z,119.47
2023-05-24T02:14:27.349Z,120.11
2023-05-24T02:15:28.395Z,119.61
2023-05-24T02:16:28.488Z,120.31
2023-05-24T02:17:27.521Z,118.71
2023-05-24T02:18:28.578Z,118.12
2023-05-24T02:19:28.631Z,118.96
2023-05-24T02:20:28.769Z,119.72
2023-05-24T02:21:27.722Z,118.09
2023-05-24T02:22:28.773Z,118.34
2023-05-24T02:23:28.857Z,115.80
2023-05-24T02:24:27.921Z,117.34
2023-05-24T02:25:28.960Z,119.85
2023-05-24T02:26:29.015Z,118.90
2023-05-24T02:27:29.063Z,117.89
2023-05-24T02:28:28.137Z,119.91
2023-05-24T02:29:29.181Z,119.70
2023-05-24T02:30:28.220Z,118.55
2023-05-24T02:31:29.396Z,119.99
2023-05-24T02:32:29.328Z,118.86
2023-05-24T02:33:29.386Z,117.42
2023-05-24T02:34:29.501Z,118.62
2023-05-24T02:35:28.524Z,117.70
2023-05-24T02:36:29.581Z,118.60
2023-05-24T02:37:29.589Z,119.62
2023-05-24T02:38:29.679Z,116.38
2023-05-24T02:39:29.698Z,117.36
2023-05-24T02:40:28.757Z,118.18
2023-05-24T02:41:29.789Z,119.04
2023-05-24T02:42:28.846Z,117.10
2023-05-24T02:43:28.900Z,117.11
2023-05-24T02:44:29.959Z,119.67
2023-05-24T02:45:29.018Z,116.40
2023-05-24T02:46:30.108Z,116.73
2023-05-24T02:47:29.201Z,116.64
2023-05-24T02:48:29.234Z,118.72
2023-05-24T02:49:30.249Z,115.00
2023-05-24T02:50:30.296Z,117.61
2023-05-24T02:51:30.347Z,119.95
2023-05-24T02:52:30.414Z,118.25
2023-05-24T02:53:29.468Z,115.30
2023-05-24T02:54:29.552Z,116.28
2023-05-24T02:55:30.572Z,113.06
2023-05-24T02:56:30.606Z,115.22
2023-05-24T02:57:29.697Z,116.12
2023-05-24T02:58:30.732Z,116.84
2023-05-24T02:59:29.779Z,115.89
2023-05-24T03:00:30.866Z,116.70
2023-05-24T03:01:29.937Z,114.37
2023-05-24T03:02:30.050Z,115.89
2023-05-24T03:03:30.203Z,115.14
2023-05-24T03:04:31.063Z,115.85
2023-05-24T03:05:31.133Z,116.78
2023-05-24T03:06:31.203Z,114.16
2023-05-24T03:07:30.221Z,116.42
2023-05-24T03:08:30.317Z,115.60
2023-05-24T03:09:30.329Z,115.21
2023-05-24T03:10:31.390Z,116.82
2023-05-24T03:11:30.439Z,115.60
2023-05-24T03:12:31.484Z,113.71
2023-05-24T03:13:31.562Z,114.14
2023-05-24T03:14:31.584Z,114.89
2023-05-24T03:15:30.660Z,115.45
2023-05-24T03:16:30.736Z,114.44
2023-05-24T03:17:30.828Z,115.42
2023-05-24T03:18:31.858Z,117.64
2023-05-24T03:19:31.913Z,115.72
2023-05-24T03:20:32.000Z,114.38
2023-05-24T03:21:31.016Z,113.20
2023-05-24T03:22:32.088Z,118.10
2023-05-24T03:23:32.213Z,115.35
2023-05-24T03:24:31.221Z,114.57
2023-05-24T03:25:32.273Z,115.37
2023-05-24T03:26:32.357Z,116.28
2023-05-24T03:27:31.401Z,115.09
2023-05-24T03:28:32.483Z,110.70
2023-05-24T03:29:32.531Z,111.96
2023-05-24T03:30:32.600Z,114.22
2023-05-24T03:31:32.722Z,114.13
2023-05-24T03:32:32.700Z,114.79
2023-05-24T03:33:31.755Z,114.85
2023-05-24T03:34:32.809Z,114.78
2023-05-24T03:35:32.870Z,111.82
2023-05-24T03:36:32.937Z,110.03
2023-05-24T03:37:32.025Z,111.67
2023-05-24T03:38:32.032Z,112.29
2023-05-24T03:39:32.156Z,112.84
2023-05-24T03:40:32.149Z,112.22
2023-05-24T03:41:32.245Z,115.70
2023-05-24T03:42:33.279Z,112.49
2023-05-24T03:43:32.329Z,113.81
2023-05-24T03:44:33.401Z,111.77
2023-05-24T03:45:39.159Z,110.64
2023-05-24T03:46:33.514Z,110.95
2023-05-24T03:47:32.473Z,111.63
2023-05-24T03:48:33.440Z,111.69
2023-05-24T03:49:33.444Z,113.73
2023-05-24T03:50:33.394Z,112.46
2023-05-24T03:51:33.433Z,113.72
2023-05-24T03:52:32.393Z,112.54
2023-05-24T03:53:32.413Z,111.14
2023-05-24T03:54:32.389Z,110.30
2023-05-24T03:55:32.420Z,110.70
2023-05-24T03:56:33.364Z,111.95
2023-05-24T03:57:33.350Z,109.94
2023-05-24T03:58:32.356Z,110.57
2023-05-24T03:59:32.338Z,110.29
2023-05-24T04:00:33.352Z,111.60
2023-05-24T04:01:35.005Z,109.41
2023-05-24T04:02:33.453Z,114.90
2023-05-24T04:03:33.374Z,112.63
2023-05-24T04:04:33.298Z,112.42
2023-05-24T04:05:33.352Z,110.75
2023-05-24T04:06:33.311Z,111.95
2023-05-24T04:07:33.279Z,110.04
2023-05-24T04:08:33.292Z,109.49
2023-05-24T04:09:33.266Z,109.58
2023-05-24T04:10:33.365Z,108.99
2023-05-24T04:11:33.300Z,107.23
2023-05-24T04:12:33.563Z,112.49
2023-05-24T04:13:32.274Z,107.32
2023-05-24T04:14:33.237Z,108.84
2023-05-24T04:15:32.213Z,109.71
2023-05-24T04:16:33.212Z,110.59
2023-05-24T04:17:33.352Z,109.03
2023-05-24T04:18:33.297Z,109.78
2023-05-24T04:19:33.222Z,107.78
2023-05-24T04:20:32.363Z,108.83
2023-05-24T04:21:33.186Z,106.99
2023-05-24T04:22:33.162Z,108.08
2023-05-24T04:23:32.199Z,108.40
2023-05-24T04:24:33.290Z,108.65
2023-05-24T04:25:33.387Z,106.48
2023-05-24T04:26:32.389Z,110.70
2023-05-24T04:27:33.516Z,108.13
2023-05-24T04:28:33.525Z,110.26
2023-05-24T04:29:32.585Z,107.06
2023-05-24T04:30:32.647Z,106.26
2023-05-24T04:31:32.818Z,106.00
2023-05-24T04:32:32.875Z,107.91
2023-05-24T04:33:33.864Z,109.18
2023-05-24T04:34:32.909Z,108.66
2023-05-24T04:35:33.984Z,107.14
2023-05-24T04:36:33.077Z,106.03
2023-05-24T04:37:34.097Z,106.70
2023-05-24T04:38:33.157Z,107.21
2023-05-24T04:39:33.206Z,106.25
2023-05-24T04:40:33.276Z,106.28
2023-05-24T04:41:33.411Z,105.38
2023-05-24T04:42:33.390Z,106.26
2023-05-24T04:43:34.556Z,103.53
2023-05-24T04:44:34.529Z,107.27
2023-05-24T04:45:33.601Z,104.04
2023-05-24T04:46:34.656Z,105.46
2023-05-24T04:47:34.740Z,105.30
2023-05-24T04:48:34.782Z,106.14
2023-05-24T04:49:34.894Z,105.95
2023-05-24T04:50:34.874Z,105.70
2023-05-24T04:51:34.949Z,105.65
2023-05-24T04:52:35.008Z,107.66
2023-05-24T04:53:35.077Z,105.45
2023-05-24T04:54:35.139Z,99.28
2023-05-24T04:55:35.179Z,92.73
2023-05-24T04:56:35.229Z,79.73
2023-05-24T04:57:34.254Z,67.86
2023-05-24T04:58:34.270Z,57.22
2023-05-24T04:59:35.354Z,46.72
2023-05-24T05:00:34.365Z,41.37
2023-05-24T05:01:35.446Z,31.91
2023-05-24T05:02:35.575Z,25.00
2023-05-24T05:03:35.619Z,24.24
2023-05-24T05:04:36.022Z,25.00
2023-05-24T05:05:36.184Z,24.59
2023-05-24T05:06:35.052Z,25.12
2023-05-24T05:07:36.450Z,25.10
2023-05-24T05:08:35.553Z,24.92
2023-05-24T05:09:34.573Z,25.87
2023-05-24T05:10:35.605Z,25.00
2023-05-24T05:11:35.672Z,25.15
2023-05-24T05:12:34.768Z,25.01
2023-05-24T05:13:35.792Z,25.61
2023-05-24T05:14:35.824Z,26.14
2023-05-24T05:15:35.913Z,27.72
2023-05-24T05:16:35.017Z,26.90
2023-05-24T05:17:36.144Z,25.00
2023-05-24T05:18:35.080Z,25.51
2023-05-24T05:19:36.156Z,25.50
2023-05-24T05:20:35.290Z,26.56
2023-05-24T05:21:36.264Z,27.42
2023-05-24T05:22:36.338Z,25.55
2023-05-24T05:23:36.520Z,27.25
2023-05-24T05:24:35.455Z,25.00
2023-05-24T05:25:35.515Z,25.00
2023-05-24T05:26:36.566Z,27.99
2023-05-24T05:27:35.649Z,26.59
2023-05-24T05:28:35.731Z,26.79
2023-05-24T05:29:36.779Z,33.77
2023-05-24T05:30:35.826Z,38.26
2023-05-24T05:31:35.903Z,43.46
2023-05-24T05:32:36.975Z,52.06
2023-05-24T05:33:35.962Z,50.58
2023-05-24T05:34:36.912Z,55.66
2023-05-24T05:35:35.958Z,54.75
2023-05-24T05:36:37.029Z,64.48
2023-05-24T05:37:37.043Z,65.87
2023-05-24T05:38:37.122Z,68.74
2023-05-24T05:39:37.103Z,67.63
2023-05-24T05:40:37.132Z,73.54
2023-05-24T05:41:37.093Z,79.33
2023-05-24T05:42:37.217Z,81.57
2023-05-24T05:43:36.193Z,80.03
2023-05-24T05:44:36.251Z,84.19
2023-05-24T05:45:36.296Z,91.04
2023-05-24T05:46:37.551Z,91.94
2023-05-24T05:47:37.452Z,93.39
2023-05-24T05:48:36.410Z,103.47
2023-05-24T05:49:37.470Z,105.63
2023-05-24T05:50:36.446Z,109.18
2023-05-24T05:51:36.607Z,120.85
2023-05-24T05:52:36.468Z,124.53
2023-05-24T05:53:36.511Z,119.69
2023-05-24T05:54:37.498Z,102.50
2023-05-24T05:55:37.528Z,88.96
2023-05-24T05:56:36.573Z,81.78
2023-05-24T05:57:36.573Z,75.59
2023-05-24T05:58:37.634Z,73.25
2023-05-24T05:59:37.660Z,59.20
2023-05-24T06:00:37.679Z,68.28
2023-05-24T06:01:36.703Z,72.78
2023-05-24T06:02:37.798Z,62.27
2023-05-24T06:03:36.973Z,58.63
2023-05-24T06:04:37.755Z,62.88
2023-05-24T06:05:37.764Z,73.12
2023-05-24T06:06:37.776Z,72.33
2023-05-24T06:07:38.365Z,68.57
2023-05-24T06:08:37.837Z,70.54
2023-05-24T06:09:37.918Z,69.51
2023-05-24T06:10:37.914Z,69.94
2023-05-24T06:11:36.875Z,70.06
2023-05-24T06:12:37.885Z,66.76
2023-05-24T06:13:37.936Z,64.83
2023-05-24T06:14:37.008Z,62.13
2023-05-24T06:15:37.028Z,65.01
2023-05-24T06:16:38.048Z,62.86
2023-05-24T06:17:38.097Z,60.52
2023-05-24T06:18:37.019Z,56.04
2023-05-24T06:19:38.078Z,59.54
2023-05-24T06:20:37.293Z,61.96
2023-05-24T06:21:37.141Z,61.11
2023-05-24T06:22:37.199Z,51.75
2023-05-24T06:23:37.278Z,52.98
2023-05-24T06:24:37.288Z,51.49
2023-05-24T06:25:38.339Z,54.51
2023-05-24T06:26:37.430Z,61.25
2023-05-24T06:27:38.454Z,65.99
2023-05-24T06:28:38.520Z,64.01
2023-05-24T06:29:38.623Z,63.77
2023-05-24T06:30:38.803Z,61.47
2023-05-24T06:31:37.761Z,61.19
2023-05-24T06:32:37.789Z,60.26
2023-05-24T06:33:38.321Z,56.12
2023-05-24T06:34:37.847Z,50.12
2023-05-24T06:35:38.988Z,46.95
2023-05-24T06:36:39.102Z,42.19
2023-05-24T06:37:39.030Z,42.84
2023-05-24T06:38:39.063Z,44.04
2023-05-24T06:39:39.166Z,51.89
2023-05-24T06:40:39.214Z,49.97
2023-05-24T06:41:39.214Z,46.34
2023-05-24T06:42:38.279Z,47.58
2023-05-24T06:43:39.307Z,47.45
2023-05-24T06:44:39.351Z,45.79
2023-05-24T06:45:39.371Z,45.05
2023-05-24T06:46:39.486Z,42.15
2023-05-24T06:47:38.520Z,40.92
2023-05-24T06:48:39.492Z,37.99
2023-05-24T06:49:39.450Z,37.05
2023-05-24T06:50:40.920Z,44.51
2023-05-24T06:51:39.525Z,51.05
2023-05-24T06:52:39.492Z,30.65
2023-05-24T06:53:39.464Z,33.89
2023-05-24T06:54:39.651Z,32.13
2023-05-24T06:55:39.433Z,32.54
2023-05-24T06:56:38.420Z,32.62
2023-05-24T06:57:39.436Z,34.40
2023-05-24T06:58:39.431Z,40.52
2023-05-24T06:59:39.651Z,45.39
2023-05-24T07:00:39.390Z,43.53
2023-05-24T07:01:38.447Z,49.42
2023-05-24T07:02:38.411Z,49.16
2023-05-24T07:03:38.373Z,52.35
2023-05-24T07:04:39.417Z,51.13
2023-05-24T07:05:38.368Z,49.37
2023-05-24T07:06:39.384Z,45.94
2023-05-24T07:07:39.471Z,46.44
2023-05-24T07:08:38.336Z,42.85
2023-05-24T07:09:39.360Z,48.86
2023-05-24T07:10:39.388Z,48.11
2023-05-24T07:11:39.385Z,54.57
2023-05-24T07:12:39.315Z,60.63
2023-05-24T07:13:39.296Z,64.83
2023-05-24T07:14:39.335Z,61.48
2023-05-24T07:15:39.289Z,61.88
2023-05-24T07:16:38.335Z,58.26
2023-05-24T07:17:39.316Z,57.17
2023-05-24T07:18:39.262Z,58.74
2023-05-24T07:19:38.281Z,59.49
2023-05-24T07:20:39.368Z,59.57
2023-05-24T07:21:39.240Z,55.10
2023-05-24T07:22:39.240Z,56.18
2023-05-24T07:23:39.385Z,59.33
2023-05-24T07:24:39.218Z,64.58
2023-05-24T07:25:39.204Z,61.11
2023-05-24T07:26:38.231Z,62.17
2023-05-24T07:27:39.205Z,71.07
2023-05-24T07:28:39.243Z,63.39
2023-05-24T07:29:38.186Z,59.57
2023-05-24T07:30:38.164Z,60.83
2023-05-24T07:31:39.237Z,65.68
2023-05-24T07:32:38.315Z,65.43
2023-05-24T07:33:39.221Z,66.04
2023-05-24T07:34:39.166Z,60.27
2023-05-24T07:35:39.141Z,62.15
2023-05-24T07:36:38.159Z,71.79
2023-05-24T07:37:38.123Z,81.15
2023-05-24T07:38:38.118Z,91.54
2023-05-24T07:39:39.150Z,92.08
2023-05-24T07:40:39.123Z,95.30
2023-05-24T07:41:39.094Z,96.02
2023-05-24T07:42:38.111Z,90.55
2023-05-24T07:43:39.209Z,87.68
2023-05-24T07:44:39.192Z,108.45
2023-05-24T07:45:38.228Z,167.28
2023-05-24T07:46:38.227Z,204.04
2023-05-24T07:47:38.267Z,206.29
2023-05-24T07:48:39.323Z,192.94
2023-05-24T07:49:39.634Z,174.18
2023-05-24T07:50:39.415Z,149.94
2023-05-24T07:51:39.434Z,148.91
2023-05-24T07:52:39.438Z,148.36
2023-05-24T07:53:39.462Z,160.62
2023-05-24T07:54:38.525Z,174.55
2023-05-24T07:55:39.591Z,178.19
2023-05-24T07:56:38.551Z,184.59
2023-05-24T07:57:38.619Z,188.44
2023-05-24T07:58:38.634Z,196.88
2023-05-24T07:59:39.673Z,203.23
2023-05-24T08:00:38.648Z,205.42
2023-05-24T08:01:39.715Z,206.05
2023-05-24T08:02:39.898Z,211.72
2023-05-24T08:03:39.990Z,218.23
2023-05-24T08:04:38.859Z,216.28
2023-05-24T08:05:38.893Z,215.00
2023-05-24T08:06:38.956Z,219.63
2023-05-24T08:07:39.941Z,230.24
2023-05-24T08:08:39.955Z,230.94
2023-05-24T08:09:39.978Z,226.14
2023-05-24T08:10:39.060Z,236.18
2023-05-24T08:11:40.005Z,237.64
2023-05-24T08:12:40.019Z,241.26
2023-05-24T08:13:40.036Z,244.57
2023-05-24T08:14:39.138Z,249.55
2023-05-24T08:15:40.334Z,249.38
2023-05-24T08:16:40.310Z,249.41
2023-05-24T08:17:40.339Z,248.20
2023-05-24T08:18:40.396Z,250.00
2023-05-24T08:19:40.430Z,249.33
2023-05-24T08:20:40.593Z,248.88
2023-05-24T08:21:39.416Z,249.80
2023-05-24T08:22:39.489Z,246.79
2023-05-24T08:23:40.493Z,249.03
2023-05-24T08:24:39.546Z,249.46
2023-05-24T08:25:39.593Z,248.54
2023-05-24T08:26:40.573Z,249.86
2023-05-24T08:27:40.654Z,248.91
2023-05-24T08:28:39.720Z,249.66
2023-05-24T08:29:40.604Z,244.69
2023-05-24T08:30:40.657Z,249.24
2023-05-24T08:31:40.670Z,246.81
2023-05-24T08:32:40.610Z,249.55
2023-05-24T08:33:40.620Z,250.00
2023-05-24T08:34:39.629Z,249.86
2023-05-24T08:35:40.864Z,250.38
2023-05-24T08:36:40.669Z,249.03
2023-05-24T08:37:39.613Z,249.58
2023-05-24T08:38:40.610Z,249.64
2023-05-24T08:39:39.623Z,248.82
2023-05-24T08:40:40.606Z,247.55
2023-05-24T08:41:40.632Z,246.59
2023-05-24T08:42:40.614Z,244.56
2023-05-24T08:43:40.662Z,248.83
2023-05-24T08:44:40.674Z,248.04
2023-05-24T08:45:40.858Z,249.91
2023-05-24T08:46:40.795Z,247.09
2023-05-24T08:47:40.762Z,249.38
2023-05-24T08:48:40.739Z,247.07
2023-05-24T08:49:39.726Z,247.84
2023-05-24T08:50:39.663Z,249.06
2023-05-24T08:51:39.685Z,249.86
2023-05-24T08:52:39.750Z,247.20
2023-05-24T08:53:39.704Z,248.14
2023-05-24T08:54:40.161Z,243.60
2023-05-24T08:55:39.709Z,241.94
2023-05-24T08:56:40.672Z,242.45
2023-05-24T08:57:40.053Z,239.95
2023-05-24T08:58:40.700Z,237.56
2023-05-24T08:59:40.816Z,238.12
2023-05-24T09:00:40.707Z,238.97
2023-05-24T09:01:40.809Z,238.91
2023-05-24T09:02:39.786Z,238.41
2023-05-24T09:03:40.818Z,239.84
2023-05-24T09:04:40.747Z,240.23
2023-05-24T09:05:40.826Z,237.78
2023-05-24T09:06:40.766Z,238.84
2023-05-24T09:07:39.769Z,237.26
2023-05-24T09:08:43.015Z,237.13
2023-05-24T09:09:39.759Z,237.22
2023-05-24T09:10:52.926Z,237.34
2023-05-24T09:11:40.742Z,237.34
2023-05-24T09:12:40.733Z,238.03
2023-05-24T09:13:40.717Z,238.21
2023-05-24T09:14:40.724Z,237.74
2023-05-24T09:15:40.874Z,237.37
2023-05-24T09:16:40.737Z,239.02
2023-05-24T09:17:40.808Z,238.54
2023-05-24T09:18:40.695Z,237.82
2023-05-24T09:19:40.667Z,236.93
2023-05-24T09:20:39.773Z,236.74
2023-05-24T09:21:40.665Z,238.16
2023-05-24T09:22:41.053Z,236.93
2023-05-24T09:23:40.659Z,239.11
2023-05-24T09:24:39.645Z,235.88
2023-05-24T09:25:40.652Z,236.51
2023-05-24T09:26:40.635Z,234.98
2023-05-24T09:27:40.609Z,234.86
2023-05-24T09:28:39.618Z,233.27
2023-05-24T09:29:40.600Z,233.17
2023-05-24T09:30:40.785Z,235.41
2023-05-24T09:31:39.901Z,234.12
2023-05-24T09:32:40.631Z,232.23
2023-05-24T09:33:40.563Z,232.05
2023-05-24T09:34:39.567Z,234.46
2023-05-24T09:35:40.555Z,233.54
2023-05-24T09:36:40.548Z,234.60
2023-05-24T09:37:40.597Z,232.10
2023-05-24T09:38:40.540Z,231.62
2023-05-24T09:39:39.524Z,232.75
2023-05-24T09:40:39.535Z,232.27
2023-05-24T09:41:40.529Z,232.89
2023-05-24T09:42:40.504Z,232.55
2023-05-24T09:43:40.516Z,233.53
2023-05-24T09:44:39.488Z,233.48
2023-05-24T09:45:40.495Z,232.09
2023-05-24T09:46:40.542Z,230.40
2023-05-24T09:47:40.578Z,223.90
2023-05-24T09:48:39.546Z,204.55
2023-05-24T09:49:39.623Z,182.07
2023-05-24T09:50:41.070Z,169.46
2023-05-24T09:51:39.746Z,152.90
2023-05-24T09:52:39.703Z,141.04
2023-05-24T09:53:40.682Z,139.17
2023-05-24T09:54:39.723Z,137.48
2023-05-24T09:55:40.764Z,133.78
2023-05-24T09:56:39.842Z,123.14
2023-05-24T09:57:40.883Z,118.92
2023-05-24T09:58:40.927Z,109.65
2023-05-24T09:59:40.984Z,105.41
2023-05-24T10:00:41.698Z,106.22
2023-05-24T10:01:40.110Z,106.28
2023-05-24T10:02:51.903Z,106.65
2023-05-24T10:03:41.492Z,105.09
2023-05-24T10:04:41.222Z,100.83
2023-05-24T10:05:41.121Z,101.08
2023-05-24T10:06:41.096Z,91.43
2023-05-24T10:07:41.094Z,88.61
2023-05-24T10:08:41.086Z,84.40
2023-05-24T10:09:40.088Z,90.04
2023-05-24T10:10:41.255Z,78.71
2023-05-24T10:11:41.108Z,84.03
2023-05-24T10:12:40.073Z,88.61
2023-05-24T10:13:41.044Z,87.99
2023-05-24T10:14:41.041Z,86.79
2023-05-24T10:15:41.052Z,83.14
2023-05-24T10:16:41.046Z,93.84
2023-05-24T10:17:40.071Z,88.52
2023-05-24T10:18:41.048Z,86.94
2023-05-24T10:19:40.100Z,80.31
2023-05-24T10:20:42.145Z,74.20
2023-05-24T10:21:41.084Z,69.39
2023-05-24T10:22:41.092Z,71.83
2023-05-24T10:23:41.120Z,71.58
2023-05-24T10:24:41.151Z,75.39
2023-05-24T10:25:41.161Z,72.21
2023-05-24T10:26:41.161Z,68.11
2023-05-24T10:27:40.188Z,71.99
2023-05-24T10:28:40.218Z,71.43
2023-05-24T10:29:41.222Z,73.05
2023-05-24T10:30:41.295Z,74.44
2023-05-24T10:31:40.498Z,72.45
2023-05-24T10:32:41.315Z,66.66
2023-05-24T10:33:41.326Z,68.31
2023-05-24T10:34:41.354Z,73.27
2023-05-24T10:35:40.398Z,70.03
2023-05-24T10:36:41.378Z,79.51
2023-05-24T10:37:41.442Z,91.25
2023-05-24T10:38:40.450Z,94.44
2023-05-24T10:39:41.213Z,95.09
2023-05-24T10:40:40.479Z,102.63
2023-05-24T10:41:41.497Z,99.64
2023-05-24T10:42:41.523Z,99.41
2023-05-24T10:43:41.609Z,107.63
2023-05-24T10:44:41.643Z,111.37
2023-05-24T10:45:41.733Z,116.10
2023-05-24T10:46:41.762Z,124.43
2023-05-24T10:47:41.798Z,118.07
2023-05-24T10:48:41.761Z,115.36
2023-05-24T10:49:41.784Z,114.54
2023-05-24T10:50:41.899Z,117.14
2023-05-24T10:51:41.903Z,117.22
2023-05-24T10:52:41.880Z,116.18
2023-05-24T10:53:41.915Z,115.24
2023-05-24T10:54:52.646Z,122.81
2023-05-24T10:55:41.970Z,123.01
2023-05-24T10:56:40.979Z,123.23
2023-05-24T10:57:41.943Z,123.93
2023-05-24T10:58:41.068Z,126.20
2023-05-24T10:59:40.918Z,131.57
2023-05-24T11:00:40.920Z,134.96
2023-05-24T11:01:41.927Z,134.10
2023-05-24T11:02:40.939Z,135.10
2023-05-24T11:03:41.895Z,135.78
2023-05-24T11:04:40.903Z,137.97
2023-05-24T11:05:43.234Z,134.81
2023-05-24T11:06:41.878Z,135.05
2023-05-24T11:07:42.041Z,135.35
2023-05-24T11:08:41.885Z,136.54
2023-05-24T11:09:40.876Z,136.54
2023-05-24T11:10:45.081Z,137.64
2023-05-24T11:11:40.859Z,134.93
2023-05-24T11:12:41.859Z,133.75
2023-05-24T11:13:40.827Z,135.00
2023-05-24T11:14:40.808Z,137.38
2023-05-24T11:15:40.819Z,138.74
2023-05-24T11:16:41.904Z,140.75
2023-05-24T11:17:43.567Z,142.06
2023-05-24T11:18:41.854Z,137.37
2023-05-24T11:19:41.780Z,131.91
2023-05-24T11:20:42.183Z,128.73
2023-05-24T11:21:40.758Z,130.86
2023-05-24T11:22:41.900Z,131.96
2023-05-24T11:23:40.852Z,141.76
2023-05-24T11:24:41.748Z,142.27
2023-05-24T11:25:41.756Z,141.47
2023-05-24T11:26:40.726Z,141.50
2023-05-24T11:27:42.729Z,137.38
2023-05-24T11:28:40.706Z,132.44
2023-05-24T11:29:41.702Z,133.59
2023-05-24T11:30:40.899Z,136.77
2023-05-24T11:31:43.203Z,135.40
2023-05-24T11:32:41.775Z,135.68
2023-05-24T11:33:40.719Z,136.42
2023-05-24T11:34:41.655Z,136.10
2023-05-24T11:35:41.658Z,138.11
2023-05-24T11:36:41.682Z,132.41
2023-05-24T11:37:46.382Z,125.07
2023-05-24T11:38:41.655Z,125.21
2023-05-24T11:39:41.672Z,126.17
2023-05-24T11:40:41.805Z,127.77
2023-05-24T11:41:41.613Z,126.21
2023-05-24T11:42:41.639Z,127.46
2023-05-24T11:43:41.609Z,125.43
2023-05-24T11:44:40.609Z,126.51
2023-05-24T11:45:41.641Z,124.25
2023-05-24T11:46:41.657Z,126.58
2023-05-24T11:47:41.591Z,122.71
2023-05-24T11:48:42.186Z,121.65
2023-05-24T11:49:40.562Z,119.61
2023-05-24T11:50:49.494Z,127.43
2023-05-24T11:51:41.576Z,127.54
2023-05-24T11:52:40.556Z,127.59
2023-05-24T11:53:41.544Z,121.73
2023-05-24T11:54:40.543Z,125.30
2023-05-24T11:55:41.761Z,125.40
2023-05-24T11:56:41.529Z,126.48
2023-05-24T11:57:41.520Z,129.61
2023-05-24T11:58:40.481Z,129.24
2023-05-24T11:59:41.526Z,127.42
2023-05-24T12:00:40.694Z,126.80
2023-05-24T12:01:40.485Z,128.72
2023-05-24T12:02:41.565Z,129.57
2023-05-24T12:03:41.566Z,128.06
2023-05-24T12:04:41.505Z,123.34
2023-05-24T12:05:41.483Z,124.82
2023-05-24T12:06:41.460Z,122.70
2023-05-24T12:07:40.461Z,122.07
2023-05-24T12:08:41.422Z,124.55
2023-05-24T12:09:40.426Z,117.70
2023-05-24T12:10:41.647Z,121.09
2023-05-24T12:11:41.516Z,127.00
2023-05-24T12:12:45.561Z,127.14
2023-05-24T12:13:41.619Z,127.30
2023-05-24T12:14:40.699Z,127.57
2023-05-24T12:15:41.687Z,129.82
2023-05-24T12:16:40.719Z,127.98
2023-05-24T12:17:41.749Z,123.09
2023-05-24T12:18:48.397Z,126.31
2023-05-24T12:19:41.719Z,126.35
2023-05-24T12:20:41.989Z,127.13
2023-05-24T12:21:41.739Z,129.32
2023-05-24T12:22:41.676Z,133.62
2023-05-24T12:23:40.669Z,135.32
2023-05-24T12:24:40.682Z,132.41
2023-05-24T12:25:41.720Z,134.03
2023-05-24T12:26:41.662Z,135.69
2023-05-24T12:27:41.723Z,133.72
2023-05-24T12:28:40.633Z,133.82
2023-05-24T12:29:42.297Z,134.18
2023-05-24T12:30:40.814Z,135.77
2023-05-24T12:31:41.718Z,135.59
2023-05-24T12:32:41.673Z,137.58
2023-05-24T12:33:40.613Z,136.82
2023-05-24T12:34:41.597Z,136.03